sensor_id;sensor_type;location;lat;lon;timestamp;temperature;humidity
792;DHT22;379;49.022;12.148;2023-11-21T00:00:20;6.60;99.90
792;DHT22;379;49.022;12.148;2023-11-21T00:02:48;6.60;99.90
792;DHT22;379;49.022;12.148;2023-11-21T00:05:15;6.60;99.90
792;DHT22;379;49.022;12.148;2023-11-21T00:07:43;6.60;99.90
792;DHT22;379;49.022;12.148;2023-11-21T00:10:11;6.60;99.90
792;DHT22;379;49.022;12.148;2023-11-21T00:12:39;6.60;99.90
792;DHT22;379;49.022;12.148;2023-11-21T00:15:08;6.60;99.90
792;DHT22;379;49.022;12.148;2023-11-21T00:17:36;6.50;99.90
792;DHT22;379;49.022;12.148;2023-11-21T00:20:06;6.50;99.90
792;DHT22;379;49.022;12.148;2023-11-21T00:22:33;6.50;99.90
792;DHT22;379;49.022;12.148;2023-11-21T00:25:00;6.50;99.90
792;DHT22;379;49.022;12.148;2023-11-21T00:27:27;6.50;99.90
792;DHT22;379;49.022;12.148;2023-11-21T00:29:53;6.50;99.90
792;DHT22;379;49.022;12.148;2023-11-21T00:32:20;6.50;99.90
792;DHT22;379;49.022;12.148;2023-11-21T00:34:47;6.50;99.90
792;DHT22;379;49.022;12.148;2023-11-21T00:37:15;6.50;99.90
792;DHT22;379;49.022;12.148;2023-11-21T00:39:41;6.50;99.90
792;DHT22;379;49.022;12.148;2023-11-21T00:42:08;6.50;99.90
792;DHT22;379;49.022;12.148;2023-11-21T00:44:38;6.50;99.90
792;DHT22;379;49.022;12.148;2023-11-21T00:47:05;6.50;99.90
792;DHT22;379;49.022;12.148;2023-11-21T00:49:32;6.50;99.90
792;DHT22;379;49.022;12.148;2023-11-21T00:51:58;6.50;99.90
792;DHT22;379;49.022;12.148;2023-11-21T00:54:27;6.50;99.90
792;DHT22;379;49.022;12.148;2023-11-21T00:56:54;6.60;99.90
792;DHT22;379;49.022;12.148;2023-11-21T00:59:21;6.60;99.90
792;DHT22;379;49.022;12.148;2023-11-21T01:01:49;6.60;99.90
792;DHT22;379;49.022;12.148;2023-11-21T01:04:15;6.60;99.90
792;DHT22;379;49.022;12.148;2023-11-21T01:06:42;6.60;99.90
792;DHT22;379;49.022;12.148;2023-11-21T01:09:09;6.60;99.90
792;DHT22;379;49.022;12.148;2023-11-21T01:11:37;6.60;99.90
792;DHT22;379;49.022;12.148;2023-11-21T01:14:04;6.60;99.90
792;DHT22;379;49.022;12.148;2023-11-21T01:16:32;6.60;99.90
792;DHT22;379;49.022;12.148;2023-11-21T01:18:58;6.60;99.90
792;DHT22;379;49.022;12.148;2023-11-21T01:21:25;6.60;99.90
792;DHT22;379;49.022;12.148;2023-11-21T01:23:53;6.60;99.90
792;DHT22;379;49.022;12.148;2023-11-21T01:26:20;6.60;99.90
792;DHT22;379;49.022;12.148;2023-11-21T01:28:48;6.60;99.90
792;DHT22;379;49.022;12.148;2023-11-21T01:31:15;6.60;99.90
792;DHT22;379;49.022;12.148;2023-11-21T01:33:42;6.60;99.90
792;DHT22;379;49.022;12.148;2023-11-21T01:36:10;6.50;99.90
792;DHT22;379;49.022;12.148;2023-11-21T01:38:36;6.50;99.90
792;DHT22;379;49.022;12.148;2023-11-21T01:41:02;6.50;99.90
792;DHT22;379;49.022;12.148;2023-11-21T01:43:30;6.50;99.90
792;DHT22;379;49.022;12.148;2023-11-21T01:45:58;6.50;99.90
792;DHT22;379;49.022;12.148;2023-11-21T01:48:26;6.50;99.90
792;DHT22;379;49.022;12.148;2023-11-21T01:50:53;6.50;99.90
792;DHT22;379;49.022;12.148;2023-11-21T01:53:20;6.40;99.90
792;DHT22;379;49.022;12.148;2023-11-21T01:55:47;6.40;99.90
792;DHT22;379;49.022;12.148;2023-11-21T01:58:14;6.40;99.90
792;DHT22;379;49.022;12.148;2023-11-21T02:00:42;6.40;99.90
792;DHT22;379;49.022;12.148;2023-11-21T02:03:10;6.40;99.90
792;DHT22;379;49.022;12.148;2023-11-21T02:05:37;6.40;99.90
792;DHT22;379;49.022;12.148;2023-11-21T02:08:04;6.40;99.90
792;DHT22;379;49.022;12.148;2023-11-21T02:10:32;6.40;99.90
792;DHT22;379;49.022;12.148;2023-11-21T02:12:59;6.40;99.90
792;DHT22;379;49.022;12.148;2023-11-21T02:15:28;6.40;99.90
792;DHT22;379;49.022;12.148;2023-11-21T02:17:55;6.40;99.90
792;DHT22;379;49.022;12.148;2023-11-21T02:20:25;6.40;99.90
792;DHT22;379;49.022;12.148;2023-11-21T02:22:56;6.40;99.90
792;DHT22;379;49.022;12.148;2023-11-21T02:25:24;6.40;99.90
792;DHT22;379;49.022;12.148;2023-11-21T02:27:51;6.40;99.90
792;DHT22;379;49.022;12.148;2023-11-21T02:30:20;6.40;99.90
792;DHT22;379;49.022;12.148;2023-11-21T02:32:47;6.40;99.90
792;DHT22;379;49.022;12.148;2023-11-21T02:35:14;6.40;99.90
792;DHT22;379;49.022;12.148;2023-11-21T02:37:41;6.30;99.90
792;DHT22;379;49.022;12.148;2023-11-21T02:40:10;6.30;99.90
792;DHT22;379;49.022;12.148;2023-11-21T02:42:39;6.30;99.90
792;DHT22;379;49.022;12.148;2023-11-21T02:45:06;6.30;99.90
792;DHT22;379;49.022;12.148;2023-11-21T02:47:33;6.30;99.90
792;DHT22;379;49.022;12.148;2023-11-21T02:50:00;6.30;99.90
792;DHT22;379;49.022;12.148;2023-11-21T02:52:27;6.30;99.90
792;DHT22;379;49.022;12.148;2023-11-21T02:54:54;6.30;99.90
792;DHT22;379;49.022;12.148;2023-11-21T02:57:22;6.30;99.90
792;DHT22;379;49.022;12.148;2023-11-21T02:59:47;6.30;99.90
792;DHT22;379;49.022;12.148;2023-11-21T03:02:14;6.30;99.90
792;DHT22;379;49.022;12.148;2023-11-21T03:04:41;6.30;99.90
792;DHT22;379;49.022;12.148;2023-11-21T03:07:09;6.30;99.90
792;DHT22;379;49.022;12.148;2023-11-21T03:09:35;6.30;99.90
792;DHT22;379;49.022;12.148;2023-11-21T03:12:03;6.20;99.90
792;DHT22;379;49.022;12.148;2023-11-21T03:14:31;6.30;99.90
792;DHT22;379;49.022;12.148;2023-11-21T03:16:57;6.20;99.90
792;DHT22;379;49.022;12.148;2023-11-21T03:19:24;6.20;99.90
792;DHT22;379;49.022;12.148;2023-11-21T03:21:51;6.20;99.90
792;DHT22;379;49.022;12.148;2023-11-21T03:24:19;6.20;99.90
792;DHT22;379;49.022;12.148;2023-11-21T03:26:45;6.20;99.90
792;DHT22;379;49.022;12.148;2023-11-21T03:29:13;6.20;99.90
792;DHT22;379;49.022;12.148;2023-11-21T03:31:41;6.20;99.90
792;DHT22;379;49.022;12.148;2023-11-21T03:34:14;6.20;99.90
792;DHT22;379;49.022;12.148;2023-11-21T03:36:41;6.20;99.90
792;DHT22;379;49.022;12.148;2023-11-21T03:39:08;6.20;99.90
792;DHT22;379;49.022;12.148;2023-11-21T03:41:35;6.20;99.90
792;DHT22;379;49.022;12.148;2023-11-21T03:44:02;6.20;99.90
792;DHT22;379;49.022;12.148;2023-11-21T03:46:28;6.20;99.90
792;DHT22;379;49.022;12.148;2023-11-21T03:48:56;6.20;99.90
792;DHT22;379;49.022;12.148;2023-11-21T03:51:23;6.20;99.90
792;DHT22;379;49.022;12.148;2023-11-21T03:53:50;6.20;99.90
792;DHT22;379;49.022;12.148;2023-11-21T03:56:17;6.20;99.90
792;DHT22;379;49.022;12.148;2023-11-21T03:58:43;6.20;99.90
792;DHT22;379;49.022;12.148;2023-11-21T04:01:10;6.20;99.90
792;DHT22;379;49.022;12.148;2023-11-21T04:03:37;6.20;99.90
792;DHT22;379;49.022;12.148;2023-11-21T04:06:07;6.20;99.90
792;DHT22;379;49.022;12.148;2023-11-21T04:08:35;6.10;99.90
792;DHT22;379;49.022;12.148;2023-11-21T04:11:02;6.10;99.90
792;DHT22;379;49.022;12.148;2023-11-21T04:13:29;6.10;99.90
792;DHT22;379;49.022;12.148;2023-11-21T04:15:56;6.10;99.90
792;DHT22;379;49.022;12.148;2023-11-21T04:18:23;6.10;99.90
792;DHT22;379;49.022;12.148;2023-11-21T04:20:50;6.10;99.90
792;DHT22;379;49.022;12.148;2023-11-21T04:23:18;6.10;99.90
792;DHT22;379;49.022;12.148;2023-11-21T04:25:45;6.10;99.90
792;DHT22;379;49.022;12.148;2023-11-21T04:28:12;6.10;99.90
792;DHT22;379;49.022;12.148;2023-11-21T04:30:38;6.10;99.90
792;DHT22;379;49.022;12.148;2023-11-21T04:33:06;6.10;99.90
792;DHT22;379;49.022;12.148;2023-11-21T04:35:33;6.10;99.90
792;DHT22;379;49.022;12.148;2023-11-21T04:37:59;6.10;99.90
792;DHT22;379;49.022;12.148;2023-11-21T04:40:28;6.10;99.90
792;DHT22;379;49.022;12.148;2023-11-21T04:42:54;6.10;99.90
792;DHT22;379;49.022;12.148;2023-11-21T04:45:22;6.10;99.90
792;DHT22;379;49.022;12.148;2023-11-21T04:47:49;6.20;99.90
792;DHT22;379;49.022;12.148;2023-11-21T04:50:16;6.10;99.90
792;DHT22;379;49.022;12.148;2023-11-21T04:52:43;6.20;99.90
792;DHT22;379;49.022;12.148;2023-11-21T04:55:10;6.20;99.90
792;DHT22;379;49.022;12.148;2023-11-21T04:57:37;6.20;99.90
792;DHT22;379;49.022;12.148;2023-11-21T05:00:05;6.20;99.90
792;DHT22;379;49.022;12.148;2023-11-21T05:02:32;6.20;99.90
792;DHT22;379;49.022;12.148;2023-11-21T05:04:59;6.20;99.90
792;DHT22;379;49.022;12.148;2023-11-21T05:07:26;6.20;99.90
792;DHT22;379;49.022;12.148;2023-11-21T05:09:54;6.20;99.90
792;DHT22;379;49.022;12.148;2023-11-21T05:12:21;6.20;99.90
792;DHT22;379;49.022;12.148;2023-11-21T05:14:50;6.20;99.90
792;DHT22;379;49.022;12.148;2023-11-21T05:17:17;6.20;99.90
792;DHT22;379;49.022;12.148;2023-11-21T05:19:43;6.20;99.90
792;DHT22;379;49.022;12.148;2023-11-21T05:22:11;6.20;99.90
792;DHT22;379;49.022;12.148;2023-11-21T05:24:38;6.20;99.90
792;DHT22;379;49.022;12.148;2023-11-21T05:27:05;6.20;99.90
792;DHT22;379;49.022;12.148;2023-11-21T05:29:32;6.20;99.90
792;DHT22;379;49.022;12.148;2023-11-21T05:32:00;6.10;99.90
792;DHT22;379;49.022;12.148;2023-11-21T05:34:27;6.10;99.90
792;DHT22;379;49.022;12.148;2023-11-21T05:36:53;6.10;99.90
792;DHT22;379;49.022;12.148;2023-11-21T05:39:20;6.10;99.90
792;DHT22;379;49.022;12.148;2023-11-21T05:41:48;6.10;99.90
792;DHT22;379;49.022;12.148;2023-11-21T05:44:15;6.20;99.90
792;DHT22;379;49.022;12.148;2023-11-21T05:46:41;6.20;99.90
792;DHT22;379;49.022;12.148;2023-11-21T05:49:10;6.20;99.90
792;DHT22;379;49.022;12.148;2023-11-21T05:51:37;6.20;99.90
792;DHT22;379;49.022;12.148;2023-11-21T05:54:04;6.20;99.90
792;DHT22;379;49.022;12.148;2023-11-21T05:56:31;6.20;99.90
792;DHT22;379;49.022;12.148;2023-11-21T05:58:58;6.20;99.90
792;DHT22;379;49.022;12.148;2023-11-21T06:01:27;6.20;99.90
792;DHT22;379;49.022;12.148;2023-11-21T06:03:54;6.20;99.90
792;DHT22;379;49.022;12.148;2023-11-21T06:06:22;6.10;99.90
792;DHT22;379;49.022;12.148;2023-11-21T06:08:50;6.10;99.90
792;DHT22;379;49.022;12.148;2023-11-21T06:11:16;6.10;99.90
792;DHT22;379;49.022;12.148;2023-11-21T06:13:44;6.00;99.90
792;DHT22;379;49.022;12.148;2023-11-21T06:16:10;6.00;99.90
792;DHT22;379;49.022;12.148;2023-11-21T06:18:40;6.10;99.90
792;DHT22;379;49.022;12.148;2023-11-21T06:21:09;6.10;99.90
792;DHT22;379;49.022;12.148;2023-11-21T06:23:37;6.00;99.90
792;DHT22;379;49.022;12.148;2023-11-21T06:26:05;6.00;99.90
792;DHT22;379;49.022;12.148;2023-11-21T06:28:32;6.00;99.90
792;DHT22;379;49.022;12.148;2023-11-21T06:30:58;6.00;99.90
792;DHT22;379;49.022;12.148;2023-11-21T06:33:30;6.00;99.90
792;DHT22;379;49.022;12.148;2023-11-21T06:35:57;6.10;99.90
792;DHT22;379;49.022;12.148;2023-11-21T06:38:24;6.10;99.90
792;DHT22;379;49.022;12.148;2023-11-21T06:40:57;6.10;99.90
792;DHT22;379;49.022;12.148;2023-11-21T06:43:24;6.10;99.90
792;DHT22;379;49.022;12.148;2023-11-21T06:45:51;6.20;99.90
792;DHT22;379;49.022;12.148;2023-11-21T06:48:18;6.20;99.90
792;DHT22;379;49.022;12.148;2023-11-21T06:50:45;6.20;99.90
792;DHT22;379;49.022;12.148;2023-11-21T06:53:12;6.20;99.90
792;DHT22;379;49.022;12.148;2023-11-21T06:55:39;6.20;99.90
792;DHT22;379;49.022;12.148;2023-11-21T06:58:07;6.20;99.90
792;DHT22;379;49.022;12.148;2023-11-21T07:00:34;6.30;99.90
792;DHT22;379;49.022;12.148;2023-11-21T07:03:01;6.30;99.90
792;DHT22;379;49.022;12.148;2023-11-21T07:05:27;6.30;99.90
792;DHT22;379;49.022;12.148;2023-11-21T07:07:54;6.30;99.90
792;DHT22;379;49.022;12.148;2023-11-21T07:10:21;6.40;99.90
792;DHT22;379;49.022;12.148;2023-11-21T07:12:47;6.40;99.90
792;DHT22;379;49.022;12.148;2023-11-21T07:15:16;6.40;99.90
792;DHT22;379;49.022;12.148;2023-11-21T07:17:44;6.40;99.90
792;DHT22;379;49.022;12.148;2023-11-21T07:20:12;6.50;99.90
792;DHT22;379;49.022;12.148;2023-11-21T07:22:39;6.50;99.90
792;DHT22;379;49.022;12.148;2023-11-21T07:25:06;6.50;99.90
792;DHT22;379;49.022;12.148;2023-11-21T07:27:35;6.60;99.90
792;DHT22;379;49.022;12.148;2023-11-21T07:30:03;6.60;99.90
792;DHT22;379;49.022;12.148;2023-11-21T07:32:32;6.70;99.90
792;DHT22;379;49.022;12.148;2023-11-21T07:34:59;6.70;99.90
792;DHT22;379;49.022;12.148;2023-11-21T07:37:27;6.70;99.90
792;DHT22;379;49.022;12.148;2023-11-21T07:39:54;6.70;99.90
792;DHT22;379;49.022;12.148;2023-11-21T07:42:22;6.70;99.90
792;DHT22;379;49.022;12.148;2023-11-21T07:44:48;6.80;99.90
792;DHT22;379;49.022;12.148;2023-11-21T07:47:15;6.80;99.90
792;DHT22;379;49.022;12.148;2023-11-21T07:49:43;6.80;99.90
792;DHT22;379;49.022;12.148;2023-11-21T07:52:13;6.80;99.90
792;DHT22;379;49.022;12.148;2023-11-21T07:54:41;6.90;99.90
792;DHT22;379;49.022;12.148;2023-11-21T07:57:08;7.00;99.90
792;DHT22;379;49.022;12.148;2023-11-21T07:59:38;7.00;99.90
792;DHT22;379;49.022;12.148;2023-11-21T08:02:06;7.00;99.90
792;DHT22;379;49.022;12.148;2023-11-21T08:04:32;7.10;99.90
792;DHT22;379;49.022;12.148;2023-11-21T08:07:01;7.10;99.90
792;DHT22;379;49.022;12.148;2023-11-21T08:09:29;7.20;99.90
792;DHT22;379;49.022;12.148;2023-11-21T08:11:56;7.20;99.90
792;DHT22;379;49.022;12.148;2023-11-21T08:14:23;7.30;99.90
792;DHT22;379;49.022;12.148;2023-11-21T08:16:51;7.40;99.90
792;DHT22;379;49.022;12.148;2023-11-21T08:19:17;7.50;99.90
792;DHT22;379;49.022;12.148;2023-11-21T08:21:44;7.60;99.90
792;DHT22;379;49.022;12.148;2023-11-21T08:24:12;7.70;99.90
792;DHT22;379;49.022;12.148;2023-11-21T08:26:39;7.70;99.90
792;DHT22;379;49.022;12.148;2023-11-21T08:29:06;7.80;99.90
792;DHT22;379;49.022;12.148;2023-11-21T08:31:34;7.80;99.90
792;DHT22;379;49.022;12.148;2023-11-21T08:34:00;7.80;99.90
792;DHT22;379;49.022;12.148;2023-11-21T08:36:28;7.80;99.90
792;DHT22;379;49.022;12.148;2023-11-21T08:38:57;7.80;99.90
792;DHT22;379;49.022;12.148;2023-11-21T08:41:25;7.70;99.90
792;DHT22;379;49.022;12.148;2023-11-21T08:43:53;7.60;99.90
792;DHT22;379;49.022;12.148;2023-11-21T08:46:20;7.70;99.90
792;DHT22;379;49.022;12.148;2023-11-21T08:48:48;7.60;99.90
792;DHT22;379;49.022;12.148;2023-11-21T08:51:17;7.50;99.90
792;DHT22;379;49.022;12.148;2023-11-21T08:53:44;7.60;99.90
792;DHT22;379;49.022;12.148;2023-11-21T08:56:12;7.70;99.90
792;DHT22;379;49.022;12.148;2023-11-21T08:58:40;7.80;99.90
792;DHT22;379;49.022;12.148;2023-11-21T09:01:08;7.80;99.90
792;DHT22;379;49.022;12.148;2023-11-21T09:03:34;7.90;99.90
792;DHT22;379;49.022;12.148;2023-11-21T09:06:02;7.90;99.90
792;DHT22;379;49.022;12.148;2023-11-21T09:08:29;7.80;99.90
792;DHT22;379;49.022;12.148;2023-11-21T09:10:56;7.90;99.90
792;DHT22;379;49.022;12.148;2023-11-21T09:13:22;7.90;99.90
792;DHT22;379;49.022;12.148;2023-11-21T09:15:51;8.00;99.90
792;DHT22;379;49.022;12.148;2023-11-21T09:18:18;8.00;99.90
792;DHT22;379;49.022;12.148;2023-11-21T09:20:45;8.10;99.90
792;DHT22;379;49.022;12.148;2023-11-21T09:23:12;8.10;99.90
792;DHT22;379;49.022;12.148;2023-11-21T09:25:39;8.30;99.90
792;DHT22;379;49.022;12.148;2023-11-21T09:28:06;8.40;99.90
792;DHT22;379;49.022;12.148;2023-11-21T09:30:34;8.40;99.90
792;DHT22;379;49.022;12.148;2023-11-21T09:33:02;8.30;99.90
792;DHT22;379;49.022;12.148;2023-11-21T09:35:30;8.40;99.90
792;DHT22;379;49.022;12.148;2023-11-21T09:37:57;8.40;99.90
792;DHT22;379;49.022;12.148;2023-11-21T09:40:24;8.50;99.90
792;DHT22;379;49.022;12.148;2023-11-21T09:42:54;8.50;99.90
792;DHT22;379;49.022;12.148;2023-11-21T09:45:25;8.60;99.90
792;DHT22;379;49.022;12.148;2023-11-21T09:47:53;8.70;99.90
792;DHT22;379;49.022;12.148;2023-11-21T09:50:23;8.80;99.90
792;DHT22;379;49.022;12.148;2023-11-21T09:52:56;8.80;99.90
792;DHT22;379;49.022;12.148;2023-11-21T09:55:27;8.90;99.90
792;DHT22;379;49.022;12.148;2023-11-21T09:57:56;9.00;99.90
792;DHT22;379;49.022;12.148;2023-11-21T10:00:23;9.00;99.90
792;DHT22;379;49.022;12.148;2023-11-21T10:02:51;9.10;99.90
792;DHT22;379;49.022;12.148;2023-11-21T10:05:18;9.10;99.90
792;DHT22;379;49.022;12.148;2023-11-21T10:07:50;9.10;99.90
792;DHT22;379;49.022;12.148;2023-11-21T10:10:19;9.20;99.90
792;DHT22;379;49.022;12.148;2023-11-21T10:12:49;9.20;99.90
792;DHT22;379;49.022;12.148;2023-11-21T10:15:20;9.20;99.90
792;DHT22;379;49.022;12.148;2023-11-21T10:17:49;9.30;99.90
792;DHT22;379;49.022;12.148;2023-11-21T10:20:17;9.50;99.90
792;DHT22;379;49.022;12.148;2023-11-21T10:22:45;9.80;99.90
792;DHT22;379;49.022;12.148;2023-11-21T10:25:13;10.10;99.90
792;DHT22;379;49.022;12.148;2023-11-21T10:27:41;10.30;99.90
792;DHT22;379;49.022;12.148;2023-11-21T10:30:09;10.50;99.90
792;DHT22;379;49.022;12.148;2023-11-21T10:32:37;10.40;99.90
792;DHT22;379;49.022;12.148;2023-11-21T10:35:06;10.40;99.90
792;DHT22;379;49.022;12.148;2023-11-21T10:37:35;10.30;99.90
792;DHT22;379;49.022;12.148;2023-11-21T10:40:05;10.20;99.90
792;DHT22;379;49.022;12.148;2023-11-21T10:42:34;10.10;99.90
792;DHT22;379;49.022;12.148;2023-11-21T10:45:00;10.00;99.90
792;DHT22;379;49.022;12.148;2023-11-21T10:47:28;10.00;99.90
792;DHT22;379;49.022;12.148;2023-11-21T10:49:55;9.90;99.90
792;DHT22;379;49.022;12.148;2023-11-21T10:52:27;9.80;99.90
792;DHT22;379;49.022;12.148;2023-11-21T10:54:54;9.70;99.90
792;DHT22;379;49.022;12.148;2023-11-21T10:57:23;9.70;99.90
792;DHT22;379;49.022;12.148;2023-11-21T10:59:54;9.70;99.90
792;DHT22;379;49.022;12.148;2023-11-21T11:02:23;10.00;99.90
792;DHT22;379;49.022;12.148;2023-11-21T11:04:54;10.20;99.90
792;DHT22;379;49.022;12.148;2023-11-21T11:07:24;10.40;99.90
792;DHT22;379;49.022;12.148;2023-11-21T11:09:53;10.50;99.90
792;DHT22;379;49.022;12.148;2023-11-21T11:12:20;10.60;99.90
792;DHT22;379;49.022;12.148;2023-11-21T11:14:48;10.50;99.90
792;DHT22;379;49.022;12.148;2023-11-21T11:17:17;10.30;99.90
792;DHT22;379;49.022;12.148;2023-11-21T11:19:46;10.20;99.90
792;DHT22;379;49.022;12.148;2023-11-21T11:22:23;10.40;99.90
792;DHT22;379;49.022;12.148;2023-11-21T11:25:08;10.70;99.90
792;DHT22;379;49.022;12.148;2023-11-21T11:27:47;11.00;99.90
792;DHT22;379;49.022;12.148;2023-11-21T11:30:28;11.00;99.90
792;DHT22;379;49.022;12.148;2023-11-21T11:33:11;11.00;99.90
792;DHT22;379;49.022;12.148;2023-11-21T11:38:27;11.10;99.90
792;DHT22;379;49.022;12.148;2023-11-21T11:41:01;11.10;99.90
792;DHT22;379;49.022;12.148;2023-11-21T11:43:29;11.10;99.90
792;DHT22;379;49.022;12.148;2023-11-21T11:45:58;10.90;99.90
792;DHT22;379;49.022;12.148;2023-11-21T11:48:27;10.80;99.90
792;DHT22;379;49.022;12.148;2023-11-21T11:51:04;10.80;99.90
792;DHT22;379;49.022;12.148;2023-11-21T11:53:36;10.70;99.90
792;DHT22;379;49.022;12.148;2023-11-21T11:56:22;10.60;99.90
792;DHT22;379;49.022;12.148;2023-11-21T11:58:52;10.60;99.90
792;DHT22;379;49.022;12.148;2023-11-21T12:01:19;10.50;99.90
792;DHT22;379;49.022;12.148;2023-11-21T12:04:25;10.40;99.90
792;DHT22;379;49.022;12.148;2023-11-21T12:07:00;10.30;99.90
792;DHT22;379;49.022;12.148;2023-11-21T12:09:30;10.30;99.90
792;DHT22;379;49.022;12.148;2023-11-21T12:11:57;10.30;99.90
792;DHT22;379;49.022;12.148;2023-11-21T12:14:24;10.40;99.90
792;DHT22;379;49.022;12.148;2023-11-21T12:16:51;10.40;99.90
792;DHT22;379;49.022;12.148;2023-11-21T12:19:20;10.30;99.90
792;DHT22;379;49.022;12.148;2023-11-21T12:21:48;10.30;99.90
792;DHT22;379;49.022;12.148;2023-11-21T12:24:15;10.30;99.90
792;DHT22;379;49.022;12.148;2023-11-21T12:26:43;10.30;99.90
792;DHT22;379;49.022;12.148;2023-11-21T12:29:10;10.20;99.90
792;DHT22;379;49.022;12.148;2023-11-21T12:31:37;10.10;99.90
792;DHT22;379;49.022;12.148;2023-11-21T12:34:04;10.00;99.90
792;DHT22;379;49.022;12.148;2023-11-21T12:36:34;9.90;99.90
792;DHT22;379;49.022;12.148;2023-11-21T12:39:02;9.90;99.90
792;DHT22;379;49.022;12.148;2023-11-21T12:41:29;9.70;99.90
792;DHT22;379;49.022;12.148;2023-11-21T12:43:57;9.70;99.90
792;DHT22;379;49.022;12.148;2023-11-21T12:46:24;9.60;99.90
792;DHT22;379;49.022;12.148;2023-11-21T12:48:54;9.60;99.90
792;DHT22;379;49.022;12.148;2023-11-21T12:51:22;9.60;99.90
792;DHT22;379;49.022;12.148;2023-11-21T12:53:50;9.60;99.90
792;DHT22;379;49.022;12.148;2023-11-21T12:56:18;9.40;99.90
792;DHT22;379;49.022;12.148;2023-11-21T12:58:48;9.40;99.90
792;DHT22;379;49.022;12.148;2023-11-21T13:01:16;9.40;99.90
792;DHT22;379;49.022;12.148;2023-11-21T13:03:46;9.40;99.90
792;DHT22;379;49.022;12.148;2023-11-21T13:06:17;9.40;99.90
792;DHT22;379;49.022;12.148;2023-11-21T13:08:44;9.40;99.90
792;DHT22;379;49.022;12.148;2023-11-21T13:11:13;9.50;99.90
792;DHT22;379;49.022;12.148;2023-11-21T13:13:41;9.40;99.90
792;DHT22;379;49.022;12.148;2023-11-21T13:16:09;9.40;99.90
792;DHT22;379;49.022;12.148;2023-11-21T13:18:36;9.40;99.90
792;DHT22;379;49.022;12.148;2023-11-21T13:21:04;9.30;99.90
792;DHT22;379;49.022;12.148;2023-11-21T13:23:35;9.30;99.90
792;DHT22;379;49.022;12.148;2023-11-21T13:26:03;9.20;99.90
792;DHT22;379;49.022;12.148;2023-11-21T13:28:31;9.30;99.90
792;DHT22;379;49.022;12.148;2023-11-21T13:30:59;9.30;99.90
792;DHT22;379;49.022;12.148;2023-11-21T13:33:28;9.30;99.90
792;DHT22;379;49.022;12.148;2023-11-21T13:35:55;9.40;99.90
792;DHT22;379;49.022;12.148;2023-11-21T13:38:23;9.40;99.90
792;DHT22;379;49.022;12.148;2023-11-21T13:40:51;9.50;99.90
792;DHT22;379;49.022;12.148;2023-11-21T13:43:20;9.50;99.90
792;DHT22;379;49.022;12.148;2023-11-21T13:45:52;9.40;99.90
792;DHT22;379;49.022;12.148;2023-11-21T13:48:26;9.40;99.90
792;DHT22;379;49.022;12.148;2023-11-21T13:50:59;9.40;99.90
792;DHT22;379;49.022;12.148;2023-11-21T13:53:35;9.30;99.90
792;DHT22;379;49.022;12.148;2023-11-21T13:56:04;9.30;99.90
792;DHT22;379;49.022;12.148;2023-11-21T13:58:32;9.30;99.90
792;DHT22;379;49.022;12.148;2023-11-21T14:01:08;9.30;99.90
792;DHT22;379;49.022;12.148;2023-11-21T14:03:47;9.30;99.90
792;DHT22;379;49.022;12.148;2023-11-21T14:06:19;9.20;99.90
792;DHT22;379;49.022;12.148;2023-11-21T14:08:50;9.20;99.90
792;DHT22;379;49.022;12.148;2023-11-21T14:11:18;9.20;99.90
792;DHT22;379;49.022;12.148;2023-11-21T14:13:47;9.20;99.90
792;DHT22;379;49.022;12.148;2023-11-21T14:16:16;9.20;99.90
792;DHT22;379;49.022;12.148;2023-11-21T14:18:43;9.20;99.90
792;DHT22;379;49.022;12.148;2023-11-21T14:21:19;9.10;99.90
792;DHT22;379;49.022;12.148;2023-11-21T14:23:47;9.10;99.90
792;DHT22;379;49.022;12.148;2023-11-21T14:26:14;9.10;99.90
792;DHT22;379;49.022;12.148;2023-11-21T14:28:43;9.10;99.90
792;DHT22;379;49.022;12.148;2023-11-21T14:31:10;9.00;99.90
792;DHT22;379;49.022;12.148;2023-11-21T14:33:41;9.00;99.90
792;DHT22;379;49.022;12.148;2023-11-21T14:36:08;8.90;99.90
792;DHT22;379;49.022;12.148;2023-11-21T14:38:35;8.80;99.90
792;DHT22;379;49.022;12.148;2023-11-21T14:41:02;8.80;99.90
792;DHT22;379;49.022;12.148;2023-11-21T14:43:32;8.70;99.90
792;DHT22;379;49.022;12.148;2023-11-21T14:48:28;8.60;99.90
792;DHT22;379;49.022;12.148;2023-11-21T14:51:09;8.60;99.90
792;DHT22;379;49.022;12.148;2023-11-21T14:53:56;8.60;99.90
792;DHT22;379;49.022;12.148;2023-11-21T14:56:26;8.50;99.90
792;DHT22;379;49.022;12.148;2023-11-21T14:58:56;8.50;99.90
792;DHT22;379;49.022;12.148;2023-11-21T15:01:25;8.50;99.90
792;DHT22;379;49.022;12.148;2023-11-21T15:04:08;8.40;99.90
792;DHT22;379;49.022;12.148;2023-11-21T15:06:41;8.40;99.90
792;DHT22;379;49.022;12.148;2023-11-21T15:09:08;8.40;99.90
792;DHT22;379;49.022;12.148;2023-11-21T15:11:49;8.30;99.90
792;DHT22;379;49.022;12.148;2023-11-21T15:14:20;8.30;99.90
792;DHT22;379;49.022;12.148;2023-11-21T15:16:50;8.30;99.90
792;DHT22;379;49.022;12.148;2023-11-21T15:19:18;8.30;99.90
792;DHT22;379;49.022;12.148;2023-11-21T15:21:51;8.30;99.90
792;DHT22;379;49.022;12.148;2023-11-21T15:24:18;8.20;99.90
792;DHT22;379;49.022;12.148;2023-11-21T15:26:45;8.20;99.90
792;DHT22;379;49.022;12.148;2023-11-21T15:29:11;8.20;99.90
792;DHT22;379;49.022;12.148;2023-11-21T15:31:40;8.20;99.90
792;DHT22;379;49.022;12.148;2023-11-21T15:34:11;8.20;99.90
792;DHT22;379;49.022;12.148;2023-11-21T15:36:38;8.10;99.90
792;DHT22;379;49.022;12.148;2023-11-21T15:39:06;8.10;99.90
792;DHT22;379;49.022;12.148;2023-11-21T15:41:35;8.00;99.90
792;DHT22;379;49.022;12.148;2023-11-21T15:44:04;8.00;99.90
792;DHT22;379;49.022;12.148;2023-11-21T15:46:33;8.00;99.90
792;DHT22;379;49.022;12.148;2023-11-21T15:49:00;8.00;99.90
792;DHT22;379;49.022;12.148;2023-11-21T15:51:29;7.90;99.90
792;DHT22;379;49.022;12.148;2023-11-21T15:53:56;7.90;99.90
792;DHT22;379;49.022;12.148;2023-11-21T15:56:25;7.90;99.90
792;DHT22;379;49.022;12.148;2023-11-21T15:58:51;7.80;99.90
792;DHT22;379;49.022;12.148;2023-11-21T16:01:18;7.80;99.90
792;DHT22;379;49.022;12.148;2023-11-21T16:03:47;7.70;99.90
792;DHT22;379;49.022;12.148;2023-11-21T16:06:13;7.70;99.90
792;DHT22;379;49.022;12.148;2023-11-21T16:08:41;7.60;99.90
792;DHT22;379;49.022;12.148;2023-11-21T16:11:08;7.60;99.90
792;DHT22;379;49.022;12.148;2023-11-21T16:13:37;7.60;99.90
792;DHT22;379;49.022;12.148;2023-11-21T16:16:06;7.60;99.90
792;DHT22;379;49.022;12.148;2023-11-21T16:18:33;7.60;99.90
792;DHT22;379;49.022;12.148;2023-11-21T16:21:00;7.50;99.90
792;DHT22;379;49.022;12.148;2023-11-21T16:23:26;7.40;99.90
792;DHT22;379;49.022;12.148;2023-11-21T16:25:53;7.30;99.90
792;DHT22;379;49.022;12.148;2023-11-21T16:28:21;7.10;99.90
792;DHT22;379;49.022;12.148;2023-11-21T16:30:49;6.90;99.90
792;DHT22;379;49.022;12.148;2023-11-21T16:33:16;6.80;99.90
792;DHT22;379;49.022;12.148;2023-11-21T16:35:43;6.70;99.90
792;DHT22;379;49.022;12.148;2023-11-21T16:38:13;6.60;99.90
792;DHT22;379;49.022;12.148;2023-11-21T16:40:40;6.50;99.90
792;DHT22;379;49.022;12.148;2023-11-21T16:43:08;6.40;99.90